Aries Voyager — C6UK7 — position and weather

sailwx.info

Track history (hours):
 
Tides and Currents Weather Stations Pressure Air Temp Water Temp Dewpoint Dewpoint Depression Visibility Wind Speed Wind Dir Waves Ship Positions

Aries Voyager

Last reported at 2018-Jan-24 08:10 UTC. Time now 2018-Feb-25 23:54 UTC.
Position N 31°54' W 117°14'.
Warning: this ship's position is 32 days out of date.

Type: Tanker. MMSI: 311821000.

Date/timePositionNaut miles runAvg speedWind from/ knotsBaromVisibWave heightAir tempDewpointWater temp
2018-Jan-24 08:10N 31°54' W 117°14'2614.3
2018-Jan-24 06:22N 32°17' W 117°28'411.6
2018-Jan-24 06:00N 32°21' W 117°30'611.4
2018-Jan-24 05:30N 32°26' W 117°33'611.6
2018-Jan-24 05:00N 32°31' W 117°37'612.0
2018-Jan-24 04:30N 32°36' W 117°40'611.7
2018-Jan-24 04:00N 32°41' W 117°43'612.6
2018-Jan-24 03:30N 32°47' W 117°47'612.5
2018-Jan-24 03:00N 32°53' W 117°50'612.5
2018-Jan-24 02:30N 32°58' W 117°53'612.5
2018-Jan-24 02:00N 33°04' W 117°57'612.6
2018-Jan-24 01:31N 33°09' W 118°00'612.5
2018-Jan-24 01:00N 33°15' W 118°04'612.4
2018-Jan-24 00:30N 33°20' W 118°07'612.7
2018-Jan-24 00:00N 33°26' W 118°09'712.9
2018-Jan-23 23:30N 33°33' W 118°12'510.9
2018-Jan-23 23:00N 33°38' W 118°12'5 9.9
2018-Jan-23 22:29N 33°43' W 118°11'1 2.7
2018-Jan-23 22:00N 33°44' W 118°10'0 0.1
2018-Jan-23 19:09N 33°44' W 118°10'0 0.2
2018-Jan-23 18:51N 33°44' W 118°10'0 0.0
2018-Jan-23 18:27N 33°44' W 118°10'0 0.0
2018-Jan-23 17:57N 33°44' W 118°10'0 0.0
2018-Jan-23 17:27N 33°44' W 118°10'0 0.0
2018-Jan-23 16:57N 33°44' W 118°10'0 0.1
2018-Jan-23 16:27N 33°44' W 118°10'0 0.0
2018-Jan-23 15:51N 33°44' W 118°10'0 0.0
2018-Jan-23 15:27N 33°44' W 118°10'0 0.0
2018-Jan-23 14:57N 33°44' W 118°10'0 0.0
2018-Jan-23 14:21N 33°44' W 118°10'0 0.1
2018-Jan-23 13:57N 33°44' W 118°10'0 0.1
2018-Jan-23 13:27N 33°44' W 118°10'0 0.0
2018-Jan-23 12:57N 33°44' W 118°10'0 0.0
2018-Jan-23 12:27N 33°44' W 118°10'0 0.1
2018-Jan-23 11:57N 33°44' W 118°10'0 0.0
2018-Jan-23 11:15N 33°44' W 118°10'0 0.0
2018-Jan-23 10:57N 33°44' W 118°10'0 0.1
2018-Jan-23 10:21N 33°44' W 118°10'0 0.1
2018-Jan-23 09:57N 33°44' W 118°10'0 0.0
2018-Jan-23 05:33N 33°44' W 118°10'0 0.1
2018-Jan-23 05:21N 33°44' W 118°10'0 0.0
2018-Jan-23 04:39N 33°44' W 118°10'0 0.0
2018-Jan-23 04:27N 33°44' W 118°10'0 0.0
2018-Jan-23 03:57N 33°44' W 118°10'0 0.0
2018-Jan-23 02:39N 33°44' W 118°10'0 0.0
2018-Jan-23 02:27N 33°44' W 118°10'0 0.0
2018-Jan-23 01:57N 33°44' W 118°10'0 0.0
2018-Jan-23 01:27N 33°44' W 118°10'0 0.1
2018-Jan-23 00:57N 33°44' W 118°10'0 0.0
2018-Jan-23 00:27N 33°44' W 118°10'0 0.2
2018-Jan-22 23:57N 33°44' W 118°10'0 0.3
2018-Jan-22 23:30N 33°44' W 118°10'0 0.4
2018-Jan-22 22:57N 33°44' W 118°10'1 2.4
2018-Jan-22 22:30N 33°43' W 118°11'3 5.3
2018-Jan-22 22:00N 33°40' W 118°11'3 6.5
2018-Jan-22 21:30N 33°37' W 118°10'510.9
2018-Jan-22 21:00N 33°32' W 118°08'611.5
2018-Jan-22 20:30N 33°26' W 118°06'612.4
2018-Jan-22 20:00N 33°21' W 118°03'612.6
2018-Jan-22 19:30N 33°15' W 117°59'611.7
2018-Jan-22 19:00N 33°10' W 117°55'3 6.8
2018-Jan-22 18:30N 33°07' W 117°53'1 1.1
2018-Jan-22 18:00N 33°07' W 117°53'1 2.5
2018-Jan-22 17:30N 33°06' W 117°53'2 3.2
2018-Jan-22 17:00N 33°05' W 117°51'0 0.9
2018-Jan-22 16:30N 33°05' W 117°51'0 1.0
2018-Jan-22 16:00N 33°04' W 117°50'0 0.9
2018-Jan-22 15:30N 33°04' W 117°50'0 0.8
2018-Jan-22 15:00N 33°04' W 117°50'1 1.0
2018-Jan-22 14:30N 33°03' W 117°49'1 1.2
2018-Jan-22 14:00N 33°03' W 117°49'1 1.3
2018-Jan-22 13:30N 33°02' W 117°48'1 1.2
2018-Jan-22 13:00N 33°02' W 117°48'0 0.9
2018-Jan-22 12:30N 33°02' W 117°48'0 0.9
2018-Jan-22 12:00N 33°01' W 117°48'0 0.9
2018-Jan-22 11:30N 33°01' W 117°47'0 0.8
2018-Jan-22 11:00N 33°00' W 117°47'0 0.7
2018-Jan-22 10:30N 32°60' W 117°47'0 0.6
2018-Jan-22 10:00N 32°60' W 117°47'0 0.8
2018-Jan-22 09:30N 32°59' W 117°47'0 0.8
2018-Jan-22 09:00N 32°59' W 117°47'0 0.6
2018-Jan-22 08:30N 32°59' W 117°47'0 0.5
2018-Jan-22 08:00N 32°58' W 117°47'0 0.6
2018-Jan-22 07:30N 32°58' W 117°46'0 0.7
2018-Jan-22 07:00N 32°58' W 117°46'0 0.7
2018-Jan-22 06:30N 32°57' W 117°46'0 0.7
2018-Jan-22 06:00N 32°57' W 117°46'0 0.5
2018-Jan-22 05:30N 32°57' W 117°46'0 0.5
2018-Jan-22 05:00N 32°57' W 117°46'0 0.5
2018-Jan-22 04:30N 32°56' W 117°46'0 0.6
2018-Jan-22 04:00N 32°56' W 117°46'0 0.9
2018-Jan-22 03:29N 32°56' W 117°45'0 0.9
2018-Jan-22 03:00N 32°56' W 117°45'0 0.6
2018-Jan-22 02:30N 32°56' W 117°45'0 0.6
2018-Jan-22 02:00N 32°57' W 117°45'0 0.7
2018-Jan-22 01:30N 32°57' W 117°45'1 1.0
2018-Jan-22 01:00N 32°57' W 117°44'0 0.4
2018-Jan-22 00:30N 32°57' W 117°44'0 0.8
2018-Jan-22 00:00N 32°57' W 117°44'0 0.7
2018-Jan-21 23:30N 32°57' W 117°43'0 0.6
2018-Jan-21 23:00N 32°56' W 117°43'0 0.3
2018-Jan-21 22:30N 32°56' W 117°43'0 0.3
2018-Jan-21 22:00N 32°57' W 117°43'0 0.6
2018-Jan-21 21:30N 32°56' W 117°43'0 0.7
2018-Jan-21 21:00N 32°56' W 117°43'0 0.7
2018-Jan-21 20:30N 32°56' W 117°43'1 1.2
2018-Jan-21 19:59N 32°55' W 117°44'2 3.5
2018-Jan-21 19:30N 32°56' W 117°45'2 4.7
2018-Jan-21 18:59N 32°58' W 117°47'2 4.7
2018-Jan-21 18:30N 32°60' W 117°49'2 4.5
2018-Jan-21 18:00N 33°02' W 117°50'2 4.7
2018-Jan-21 17:30N 33°03' W 117°52'2 4.7
2018-Jan-21 17:00N 33°05' W 117°54'2 4.3
2018-Jan-21 16:30N 33°07' W 117°55'2 4.2
2018-Jan-21 16:00N 33°09' W 117°55'1 2.1
2018-Jan-21 15:30N 33°10' W 117°56'0 0.7
2018-Jan-21 15:00N 33°10' W 117°56'0 1.0
2018-Jan-21 14:30N 33°10' W 117°56'1 1.2
2018-Jan-21 14:00N 33°09' W 117°56'1 1.2
2018-Jan-21 13:30N 33°08' W 117°55'3 5.3
2018-Jan-21 13:00N 33°10' W 117°53'2 4.4
2018-Jan-21 12:30N 33°11' W 117°51'1 1.1
2018-Jan-21 12:00N 33°11' W 117°51'0 0.8
2018-Jan-21 11:30N 33°10' W 117°51'0 0.9
2018-Jan-21 11:00N 33°10' W 117°51'0 0.9
2018-Jan-21 10:30N 33°10' W 117°52'0 1.0
2018-Jan-21 10:00N 33°10' W 117°52'1 1.0
2018-Jan-21 09:30N 33°09' W 117°53'1 1.1
2018-Jan-21 09:00N 33°09' W 117°53'1 1.2
2018-Jan-21 08:30N 33°09' W 117°54'1 1.2
2018-Jan-21 08:00N 33°09' W 117°55'1 1.1
2018-Jan-21 07:30N 33°08' W 117°55'1 1.9
2018-Jan-21 07:00N 33°07' W 117°55'3 5.4
2018-Jan-21 06:30N 33°05' W 117°54'3 5.9
2018-Jan-21 06:00N 33°02' W 117°52'3 5.7
2018-Jan-21 05:30N 32°60' W 117°51'3 5.7
2018-Jan-21 05:00N 32°57' W 117°49'3 5.8
2018-Jan-21 04:30N 32°55' W 117°48'3 5.7
2018-Jan-21 04:00N 32°52' W 117°47'3 5.6
2018-Jan-21 03:30N 32°49' W 117°45'3 5.6
2018-Jan-21 03:00N 32°47' W 117°44'3 5.6
2018-Jan-21 02:30N 32°44' W 117°43'3 5.5
2018-Jan-21 02:00N 32°42' W 117°42'3 5.3
2018-Jan-21 01:30N 32°39' W 117°41'3 5.2
2018-Jan-21 01:00N 32°37' W 117°40'3 5.0
2018-Jan-21 00:30N 32°34' W 117°38'2 4.9
2018-Jan-21 00:00N 32°32' W 117°37'2 4.9
2018-Jan-20 23:30N 32°30' W 117°36'2 5.0
2018-Jan-20 23:00N 32°28' W 117°35'3 4.9
2018-Jan-20 22:29N 32°25' W 117°34'2 4.7
2018-Jan-20 21:57N 32°23' W 117°33'  
2018-Jan-18 04:00N 32°06' W 117°36'612.1
2018-Jan-18 03:30N 32°12' W 117°37'713.2
2018-Jan-18 02:59N 32°19' W 117°38'613.0
2018-Jan-18 02:30N 32°25' W 117°38'713.2
2018-Jan-18 02:00N 32°32' W 117°38'713.2
2018-Jan-18 01:30N 32°38' W 117°39'713.2
2018-Jan-18 01:00N 32°44' W 117°41'1211.9
2018-Jan-18 00:00N 32°56' W 117°46'110.5
2018-Jan-17 23:57N 32°56' W 117°46'  
Track history (hours):
 
Tides and Currents Weather Stations Pressure Air Temp Water Temp Dewpoint Dewpoint Depression Visibility Wind Speed Wind Dir Waves Ship Positions

Aries Voyager

Last reported at 2018-Jan-24 08:10 UTC. Time now 2018-Feb-25 23:54 UTC.
Position N 31°54' W 117°14'.
Warning: this ship's position is 32 days out of date.

Type: Tanker. MMSI: 311821000.

Date/timePositionNaut miles runAvg speedWind from/ knotsBaromVisibWave heightAir tempDewpointWater temp
2018-Jan-24 08:10N 31°54' W 117°14'2614.3
2018-Jan-24 06:22N 32°17' W 117°28'411.6
2018-Jan-24 06:00N 32°21' W 117°30'611.4
2018-Jan-24 05:30N 32°26' W 117°33'611.6
2018-Jan-24 05:00N 32°31' W 117°37'612.0
2018-Jan-24 04:30N 32°36' W 117°40'611.7
2018-Jan-24 04:00N 32°41' W 117°43'612.6
2018-Jan-24 03:30N 32°47' W 117°47'612.5
2018-Jan-24 03:00N 32°53' W 117°50'612.5
2018-Jan-24 02:30N 32°58' W 117°53'612.5
2018-Jan-24 02:00N 33°04' W 117°57'612.6
2018-Jan-24 01:31N 33°09' W 118°00'612.5
2018-Jan-24 01:00N 33°15' W 118°04'612.4
2018-Jan-24 00:30N 33°20' W 118°07'612.7
2018-Jan-24 00:00N 33°26' W 118°09'712.9
2018-Jan-23 23:30N 33°33' W 118°12'510.9
2018-Jan-23 23:00N 33°38' W 118°12'5 9.9
2018-Jan-23 22:29N 33°43' W 118°11'1 2.7
2018-Jan-23 22:00N 33°44' W 118°10'0 0.1
2018-Jan-23 19:09N 33°44' W 118°10'0 0.2
2018-Jan-23 18:51N 33°44' W 118°10'0 0.0
2018-Jan-23 18:27N 33°44' W 118°10'0 0.0
2018-Jan-23 17:57N 33°44' W 118°10'0 0.0
2018-Jan-23 17:27N 33°44' W 118°10'0 0.0
2018-Jan-23 16:57N 33°44' W 118°10'0 0.1
2018-Jan-23 16:27N 33°44' W 118°10'0 0.0
2018-Jan-23 15:51N 33°44' W 118°10'0 0.0
2018-Jan-23 15:27N 33°44' W 118°10'0 0.0
2018-Jan-23 14:57N 33°44' W 118°10'0 0.0
2018-Jan-23 14:21N 33°44' W 118°10'0 0.1
2018-Jan-23 13:57N 33°44' W 118°10'0 0.1
2018-Jan-23 13:27N 33°44' W 118°10'0 0.0
2018-Jan-23 12:57N 33°44' W 118°10'0 0.0
2018-Jan-23 12:27N 33°44' W 118°10'0 0.1
2018-Jan-23 11:57N 33°44' W 118°10'0 0.0
2018-Jan-23 11:15N 33°44' W 118°10'0 0.0
2018-Jan-23 10:57N 33°44' W 118°10'0 0.1
2018-Jan-23 10:21N 33°44' W 118°10'0 0.1
2018-Jan-23 09:57N 33°44' W 118°10'0 0.0
2018-Jan-23 05:33N 33°44' W 118°10'0 0.1
2018-Jan-23 05:21N 33°44' W 118°10'0 0.0
2018-Jan-23 04:39N 33°44' W 118°10'0 0.0
2018-Jan-23 04:27N 33°44' W 118°10'0 0.0
2018-Jan-23 03:57N 33°44' W 118°10'0 0.0
2018-Jan-23 02:39N 33°44' W 118°10'0 0.0
2018-Jan-23 02:27N 33°44' W 118°10'0 0.0
2018-Jan-23 01:57N 33°44' W 118°10'0 0.0
2018-Jan-23 01:27N 33°44' W 118°10'0 0.1
2018-Jan-23 00:57N 33°44' W 118°10'0 0.0
2018-Jan-23 00:27N 33°44' W 118°10'0 0.2
2018-Jan-22 23:57N 33°44' W 118°10'0 0.3
2018-Jan-22 23:30N 33°44' W 118°10'0 0.4
2018-Jan-22 22:57N 33°44' W 118°10'1 2.4
2018-Jan-22 22:30N 33°43' W 118°11'3 5.3
2018-Jan-22 22:00N 33°40' W 118°11'3 6.5
2018-Jan-22 21:30N 33°37' W 118°10'510.9
2018-Jan-22 21:00N 33°32' W 118°08'611.5
2018-Jan-22 20:30N 33°26' W 118°06'612.4
2018-Jan-22 20:00N 33°21' W 118°03'612.6
2018-Jan-22 19:30N 33°15' W 117°59'611.7
2018-Jan-22 19:00N 33°10' W 117°55'3 6.8
2018-Jan-22 18:30N 33°07' W 117°53'1 1.1
2018-Jan-22 18:00N 33°07' W 117°53'1 2.5
2018-Jan-22 17:30N 33°06' W 117°53'2 3.2
2018-Jan-22 17:00N 33°05' W 117°51'0 0.9
2018-Jan-22 16:30N 33°05' W 117°51'0 1.0
2018-Jan-22 16:00N 33°04' W 117°50'0 0.9
2018-Jan-22 15:30N 33°04' W 117°50'0 0.8
2018-Jan-22 15:00N 33°04' W 117°50'1 1.0
2018-Jan-22 14:30N 33°03' W 117°49'1 1.2
2018-Jan-22 14:00N 33°03' W 117°49'1 1.3
2018-Jan-22 13:30N 33°02' W 117°48'1 1.2
2018-Jan-22 13:00N 33°02' W 117°48'0 0.9
2018-Jan-22 12:30N 33°02' W 117°48'0 0.9
2018-Jan-22 12:00N 33°01' W 117°48'0 0.9
2018-Jan-22 11:30N 33°01' W 117°47'0 0.8
2018-Jan-22 11:00N 33°00' W 117°47'0 0.7
2018-Jan-22 10:30N 32°60' W 117°47'0 0.6
2018-Jan-22 10:00N 32°60' W 117°47'0 0.8
2018-Jan-22 09:30N 32°59' W 117°47'0 0.8
2018-Jan-22 09:00N 32°59' W 117°47'0 0.6
2018-Jan-22 08:30N 32°59' W 117°47'0 0.5
2018-Jan-22 08:00N 32°58' W 117°47'0 0.6
2018-Jan-22 07:30N 32°58' W 117°46'0 0.7
2018-Jan-22 07:00N 32°58' W 117°46'0 0.7
2018-Jan-22 06:30N 32°57' W 117°46'0 0.7
2018-Jan-22 06:00N 32°57' W 117°46'0 0.5
2018-Jan-22 05:30N 32°57' W 117°46'0 0.5
2018-Jan-22 05:00N 32°57' W 117°46'0 0.5
2018-Jan-22 04:30N 32°56' W 117°46'0 0.6
2018-Jan-22 04:00N 32°56' W 117°46'0 0.9
2018-Jan-22 03:29N 32°56' W 117°45'0 0.9
2018-Jan-22 03:00N 32°56' W 117°45'0 0.6
2018-Jan-22 02:30N 32°56' W 117°45'0 0.6
2018-Jan-22 02:00N 32°57' W 117°45'0 0.7
2018-Jan-22 01:30N 32°57' W 117°45'1 1.0
2018-Jan-22 01:00N 32°57' W 117°44'0 0.4
2018-Jan-22 00:30N 32°57' W 117°44'0 0.8
2018-Jan-22 00:00N 32°57' W 117°44'0 0.7
2018-Jan-21 23:30N 32°57' W 117°43'0 0.6
2018-Jan-21 23:00N 32°56' W 117°43'0 0.3
2018-Jan-21 22:30N 32°56' W 117°43'0 0.3
2018-Jan-21 22:00N 32°57' W 117°43'0 0.6
2018-Jan-21 21:30N 32°56' W 117°43'0 0.7
2018-Jan-21 21:00N 32°56' W 117°43'0 0.7
2018-Jan-21 20:30N 32°56' W 117°43'1 1.2
2018-Jan-21 19:59N 32°55' W 117°44'2 3.5
2018-Jan-21 19:30N 32°56' W 117°45'2 4.7
2018-Jan-21 18:59N 32°58' W 117°47'2 4.7
2018-Jan-21 18:30N 32°60' W 117°49'2 4.5
2018-Jan-21 18:00N 33°02' W 117°50'2 4.7
2018-Jan-21 17:30N 33°03' W 117°52'2 4.7
2018-Jan-21 17:00N 33°05' W 117°54'2 4.3
2018-Jan-21 16:30N 33°07' W 117°55'2 4.2
2018-Jan-21 16:00N 33°09' W 117°55'1 2.1
2018-Jan-21 15:30N 33°10' W 117°56'0 0.7
2018-Jan-21 15:00N 33°10' W 117°56'0 1.0
2018-Jan-21 14:30N 33°10' W 117°56'1 1.2
2018-Jan-21 14:00N 33°09' W 117°56'1 1.2
2018-Jan-21 13:30N 33°08' W 117°55'3 5.3
2018-Jan-21 13:00N 33°10' W 117°53'2 4.4
2018-Jan-21 12:30N 33°11' W 117°51'1 1.1
2018-Jan-21 12:00N 33°11' W 117°51'0 0.8
2018-Jan-21 11:30N 33°10' W 117°51'0 0.9
2018-Jan-21 11:00N 33°10' W 117°51'0 0.9
2018-Jan-21 10:30N 33°10' W 117°52'0 1.0
2018-Jan-21 10:00N 33°10' W 117°52'1 1.0
2018-Jan-21 09:30N 33°09' W 117°53'1 1.1
2018-Jan-21 09:00N 33°09' W 117°53'1 1.2
2018-Jan-21 08:30N 33°09' W 117°54'1 1.2
2018-Jan-21 08:00N 33°09' W 117°55'1 1.1
2018-Jan-21 07:30N 33°08' W 117°55'1 1.9
2018-Jan-21 07:00N 33°07' W 117°55'3 5.4
2018-Jan-21 06:30N 33°05' W 117°54'3 5.9
2018-Jan-21 06:00N 33°02' W 117°52'3 5.7
2018-Jan-21 05:30N 32°60' W 117°51'3 5.7
2018-Jan-21 05:00N 32°57' W 117°49'3 5.8
2018-Jan-21 04:30N 32°55' W 117°48'3 5.7
2018-Jan-21 04:00N 32°52' W 117°47'3 5.6
2018-Jan-21 03:30N 32°49' W 117°45'3 5.6
2018-Jan-21 03:00N 32°47' W 117°44'3 5.6
2018-Jan-21 02:30N 32°44' W 117°43'3 5.5
2018-Jan-21 02:00N 32°42' W 117°42'3 5.3
2018-Jan-21 01:30N 32°39' W 117°41'3 5.2
2018-Jan-21 01:00N 32°37' W 117°40'3 5.0
2018-Jan-21 00:30N 32°34' W 117°38'2 4.9
2018-Jan-21 00:00N 32°32' W 117°37'2 4.9
2018-Jan-20 23:30N 32°30' W 117°36'2 5.0
2018-Jan-20 23:00N 32°28' W 117°35'3 4.9
2018-Jan-20 22:29N 32°25' W 117°34'2 4.7
2018-Jan-20 21:57N 32°23' W 117°33'  
2018-Jan-18 04:00N 32°06' W 117°36'612.1
2018-Jan-18 03:30N 32°12' W 117°37'713.2
2018-Jan-18 02:59N 32°19' W 117°38'613.0
2018-Jan-18 02:30N 32°25' W 117°38'713.2
2018-Jan-18 02:00N 32°32' W 117°38'713.2
2018-Jan-18 01:30N 32°38' W 117°39'713.2
2018-Jan-18 01:00N 32°44' W 117°41'1211.9
2018-Jan-18 00:00N 32°56' W 117°46'110.5
2018-Jan-17 23:57N 32°56' W 117°46'  

Dump ship's entire track history